sensor_id;sensor_type;location;lat;lon;timestamp;pressure;altitude;pressure_sealevel;temperature;humidity
15932;BME280;8065;49.520;11.284;2024-02-15T00:00:31;97939.56;;;13.26;86.87
15932;BME280;8065;49.520;11.284;2024-02-15T00:03:01;97938.59;;;13.31;86.77
15932;BME280;8065;49.520;11.284;2024-02-15T00:05:31;97936.25;;;13.29;86.60
15932;BME280;8065;49.520;11.284;2024-02-15T00:08:03;97938.91;;;13.29;86.84
15932;BME280;8065;49.520;11.284;2024-02-15T00:10:31;97935.78;;;13.27;86.84
15932;BME280;8065;49.520;11.284;2024-02-15T00:13:00;97933.91;;;13.28;86.93
15932;BME280;8065;49.520;11.284;2024-02-15T00:15:28;97930.91;;;13.29;86.73
15932;BME280;8065;49.520;11.284;2024-02-15T00:17:56;97932.47;;;13.30;86.97
15932;BME280;8065;49.520;11.284;2024-02-15T00:20:25;97936.06;;;13.34;86.70
15932;BME280;8065;49.520;11.284;2024-02-15T00:22:53;97929.47;;;13.32;86.89
15932;BME280;8065;49.520;11.284;2024-02-15T00:25:24;97932.47;;;13.30;86.97
15932;BME280;8065;49.520;11.284;2024-02-15T00:27:53;97932.59;;;13.34;87.01
15932;BME280;8065;49.520;11.284;2024-02-15T00:30:21;97922.72;;;13.34;87.05
15932;BME280;8065;49.520;11.284;2024-02-15T00:32:50;97925.06;;;13.36;86.92
15932;BME280;8065;49.520;11.284;2024-02-15T00:35:18;97924.09;;;13.40;86.83
15932;BME280;8065;49.520;11.284;2024-02-15T00:37:46;97921.41;;;13.40;86.73
15932;BME280;8065;49.520;11.284;2024-02-15T00:40:15;97924.41;;;13.39;86.73
15932;BME280;8065;49.520;11.284;2024-02-15T00:42:46;97918.94;;;13.35;87.09
15932;BME280;8065;49.520;11.284;2024-02-15T00:45:15;97911.72;;;13.36;86.83
15932;BME280;8065;49.520;11.284;2024-02-15T00:47:43;97918.28;;;13.38;86.87
15932;BME280;8065;49.520;11.284;2024-02-15T00:50:11;97916.06;;;13.40;86.73
15932;BME280;8065;49.520;11.284;2024-02-15T00:52:39;97918.56;;;13.45;86.48
15932;BME280;8065;49.520;11.284;2024-02-15T00:55:08;97922.31;;;13.44;86.61
15932;BME280;8065;49.520;11.284;2024-02-15T00:57:36;97919.19;;;13.42;86.44
15932;BME280;8065;49.520;11.284;2024-02-15T01:00:08;97924.34;;;13.48;86.46
15932;BME280;8065;49.520;11.284;2024-02-15T01:02:38;97921.09;;;13.42;86.39
15932;BME280;8065;49.520;11.284;2024-02-15T01:05:07;97914.97;;;13.41;86.53
15932;BME280;8065;49.520;11.284;2024-02-15T01:07:35;97919.84;;;13.39;86.42
15932;BME280;8065;49.520;11.284;2024-02-15T01:10:05;97914.50;;;13.39;86.63
15932;BME280;8065;49.520;11.284;2024-02-15T01:12:33;97917.63;;;13.41;86.71
15932;BME280;8065;49.520;11.284;2024-02-15T01:15:02;97917.63;;;13.41;86.76
15932;BME280;8065;49.520;11.284;2024-02-15T01:17:33;97921.41;;;13.40;86.65
15932;BME280;8065;49.520;11.284;2024-02-15T01:20:02;97921.41;;;13.40;86.87
15932;BME280;8065;49.520;11.284;2024-02-15T01:22:32;97921.53;;;13.44;86.76
15932;BME280;8065;49.520;11.284;2024-02-15T01:25:00;97919.66;;;13.44;86.67
15932;BME280;8065;49.520;11.284;2024-02-15T01:27:28;97922.78;;;13.47;86.70
15932;BME280;8065;49.520;11.284;2024-02-15T01:29:57;97923.13;;;13.45;86.72
15932;BME280;8065;49.520;11.284;2024-02-15T01:32:25;97914.78;;;13.47;86.81
15932;BME280;8065;49.520;11.284;2024-02-15T01:34:56;97911.13;;;13.51;86.86
15932;BME280;8065;49.520;11.284;2024-02-15T01:37:24;97917.25;;;13.52;86.95
15932;BME280;8065;49.520;11.284;2024-02-15T01:39:52;97915.56;;;13.47;86.93
15932;BME280;8065;49.520;11.284;2024-02-15T01:42:21;97910.41;;;13.42;87.01
15932;BME280;8065;49.520;11.284;2024-02-15T01:44:49;97913.09;;;13.42;87.24
15932;BME280;8065;49.520;11.284;2024-02-15T01:47:18;97922.19;;;13.41;87.11
15932;BME280;8065;49.520;11.284;2024-02-15T01:49:48;97918.41;;;13.42;87.13
15932;BME280;8065;49.520;11.284;2024-02-15T01:52:19;97927.66;;;13.44;86.99
15932;BME280;8065;49.520;11.284;2024-02-15T01:54:48;97915.44;;;13.43;86.92
15932;BME280;8065;49.520;11.284;2024-02-15T01:57:18;97922.47;;;13.48;87.20
15932;BME280;8065;49.520;11.284;2024-02-15T01:59:46;97912.75;;;13.43;87.23
15932;BME280;8065;49.520;11.284;2024-02-15T02:02:16;97908.34;;;13.48;87.33
15932;BME280;8065;49.520;11.284;2024-02-15T02:04:47;97908.78;;;13.50;87.24
15932;BME280;8065;49.520;11.284;2024-02-15T02:07:15;97905.34;;;13.49;87.30
15932;BME280;8065;49.520;11.284;2024-02-15T02:09:46;97903.72;;;13.57;87.18
15932;BME280;8065;49.520;11.284;2024-02-15T02:12:15;97899.03;;;13.54;87.03
15932;BME280;8065;49.520;11.284;2024-02-15T02:14:41;97905.91;;;13.55;87.03
15932;BME280;8065;49.520;11.284;2024-02-15T02:17:13;97901.81;;;13.57;87.15
15932;BME280;8065;49.520;11.284;2024-02-15T02:19:42;97897.44;;;13.53;86.47
15932;BME280;8065;49.520;11.284;2024-02-15T02:22:11;97895.44;;;13.50;86.99
15932;BME280;8065;49.520;11.284;2024-02-15T02:24:54;97894.31;;;13.51;87.15
15932;BME280;8065;49.520;11.284;2024-02-15T02:27:25;97895.31;;;14.45;83.00
15932;BME280;8065;49.520;11.284;2024-02-15T02:29:54;97901.47;;;14.70;81.54
15932;BME280;8065;49.520;11.284;2024-02-15T02:32:24;97897.78;;;14.74;81.38
15932;BME280;8065;49.520;11.284;2024-02-15T02:34:53;97897.31;;;14.85;80.99
15932;BME280;8065;49.520;11.284;2024-02-15T02:37:23;97905.81;;;14.87;81.15
15932;BME280;8065;49.520;11.284;2024-02-15T02:39:53;97903.91;;;14.99;81.04
15932;BME280;8065;49.520;11.284;2024-02-15T02:42:22;97904.91;;;15.07;80.49
15932;BME280;8065;49.520;11.284;2024-02-15T02:44:50;97903.34;;;15.06;80.37
15932;BME280;8065;49.520;11.284;2024-02-15T02:47:19;97900.44;;;15.11;80.31
15932;BME280;8065;49.520;11.284;2024-02-15T02:49:47;97907.25;;;15.08;79.99
15932;BME280;8065;49.520;11.284;2024-02-15T02:52:15;97902.66;;;15.09;80.57
15932;BME280;8065;49.520;11.284;2024-02-15T02:54:43;97903.13;;;15.11;80.47
15932;BME280;8065;49.520;11.284;2024-02-15T02:57:14;97903.44;;;15.09;80.14
15932;BME280;8065;49.520;11.284;2024-02-15T02:59:44;97903.56;;;15.13;80.55
15932;BME280;8065;49.520;11.284;2024-02-15T03:02:12;97906.69;;;15.15;80.28
15932;BME280;8065;49.520;11.284;2024-02-15T03:04:41;97904.22;;;15.10;80.46
15932;BME280;8065;49.520;11.284;2024-02-15T03:07:09;97909.81;;;15.17;80.15
15932;BME280;8065;49.520;11.284;2024-02-15T03:09:42;97908.34;;;15.20;79.90
15932;BME280;8065;49.520;11.284;2024-02-15T03:12:11;97908.91;;;15.13;80.29
15932;BME280;8065;49.520;11.284;2024-02-15T03:14:42;97905.47;;;14.76;81.63
15932;BME280;8065;49.520;11.284;2024-02-15T03:17:11;97911.59;;;15.13;80.16
15932;BME280;8065;49.520;11.284;2024-02-15T03:19:39;97905.44;;;15.25;79.82
15932;BME280;8065;49.520;11.284;2024-02-15T03:22:07;97904.78;;;15.16;79.89
15932;BME280;8065;49.520;11.284;2024-02-15T03:24:38;97909.38;;;14.54;83.08
15932;BME280;8065;49.520;11.284;2024-02-15T03:27:08;97905.16;;;14.65;82.36
15932;BME280;8065;49.520;11.284;2024-02-15T03:29:37;97906.38;;;14.56;82.71
15932;BME280;8065;49.520;11.284;2024-02-15T03:32:09;97911.28;;;14.21;84.32
15932;BME280;8065;49.520;11.284;2024-02-15T03:34:37;97905.34;;;14.15;84.21
15932;BME280;8065;49.520;11.284;2024-02-15T03:37:08;97904.91;;;14.13;84.52
15932;BME280;8065;49.520;11.284;2024-02-15T03:39:36;97907.41;;;13.97;85.42
15932;BME280;8065;49.520;11.284;2024-02-15T03:42:04;97901.41;;;14.00;85.13
15932;BME280;8065;49.520;11.284;2024-02-15T03:44:32;97907.28;;;13.94;85.67
15932;BME280;8065;49.520;11.284;2024-02-15T03:47:01;97911.41;;;13.91;85.71
15932;BME280;8065;49.520;11.284;2024-02-15T03:49:33;97910.94;;;13.89;85.62
15932;BME280;8065;49.520;11.284;2024-02-15T03:52:01;97903.38;;;13.91;85.67
15932;BME280;8065;49.520;11.284;2024-02-15T03:54:30;97899.81;;;13.87;85.79
15932;BME280;8065;49.520;11.284;2024-02-15T03:56:59;97903.22;;;14.08;84.85
15932;BME280;8065;49.520;11.284;2024-02-15T03:59:27;97913.66;;;14.01;84.96
15932;BME280;8065;49.520;11.284;2024-02-15T04:01:57;97906.88;;;14.04;84.88
15932;BME280;8065;49.520;11.284;2024-02-15T04:04:28;97906.97;;;13.95;85.66
15932;BME280;8065;49.520;11.284;2024-02-15T04:06:59;97903.38;;;13.91;85.55
15932;BME280;8065;49.520;11.284;2024-02-15T04:09:27;97896.34;;;13.87;85.83
15932;BME280;8065;49.520;11.284;2024-02-15T04:11:55;97900.16;;;13.86;85.79
15932;BME280;8065;49.520;11.284;2024-02-15T04:14:23;97902.31;;;14.04;85.04
15932;BME280;8065;49.520;11.284;2024-02-15T04:16:52;97900.72;;;13.91;85.77
15932;BME280;8065;49.520;11.284;2024-02-15T04:19:20;97905.84;;;13.84;85.89
15932;BME280;8065;49.520;11.284;2024-02-15T04:21:48;97906.16;;;13.83;85.71
15932;BME280;8065;49.520;11.284;2024-02-15T04:24:19;97908.72;;;13.79;85.76
15932;BME280;8065;49.520;11.284;2024-02-15T04:26:48;97909.44;;;14.00;84.88
15932;BME280;8065;49.520;11.284;2024-02-15T04:29:17;97902.25;;;13.80;85.63
15932;BME280;8065;49.520;11.284;2024-02-15T04:31:45;97898.59;;;13.85;85.58
15932;BME280;8065;49.520;11.284;2024-02-15T04:34:14;97893.97;;;14.75;81.89
15932;BME280;8065;49.520;11.284;2024-02-15T04:36:45;97895.31;;;14.82;81.39
15932;BME280;8065;49.520;11.284;2024-02-15T04:39:15;97897.84;;;13.96;84.57
15932;BME280;8065;49.520;11.284;2024-02-15T04:41:51;97903.69;;;13.77;85.29
15932;BME280;8065;49.520;11.284;2024-02-15T04:44:20;97902.00;;;13.73;85.35
15932;BME280;8065;49.520;11.284;2024-02-15T04:46:52;97897.47;;;14.64;81.49
15932;BME280;8065;49.520;11.284;2024-02-15T04:49:21;97900.34;;;14.83;80.30
15932;BME280;8065;49.520;11.284;2024-02-15T04:51:49;97900.66;;;13.67;84.28
15932;BME280;8065;49.520;11.284;2024-02-15T04:54:17;97900.00;;;13.28;85.20
15932;BME280;8065;49.520;11.284;2024-02-15T04:56:47;97909.75;;;13.16;86.12
15932;BME280;8065;49.520;11.284;2024-02-15T04:59:21;97911.00;;;12.97;86.44
15932;BME280;8065;49.520;11.284;2024-02-15T05:01:51;97903.19;;;12.92;86.79
15932;BME280;8065;49.520;11.284;2024-02-15T05:04:19;97897.06;;;12.92;86.58
15932;BME280;8065;49.520;11.284;2024-02-15T05:06:49;97905.06;;;12.92;86.63
15932;BME280;8065;49.520;11.284;2024-02-15T05:09:18;97896.41;;;12.95;86.64
15932;BME280;8065;49.520;11.284;2024-02-15T05:11:48;97903.78;;;12.98;86.69
15932;BME280;8065;49.520;11.284;2024-02-15T05:14:20;97909.34;;;13.05;86.74
15932;BME280;8065;49.520;11.284;2024-02-15T05:16:49;97906.91;;;13.00;86.73
15932;BME280;8065;49.520;11.284;2024-02-15T05:19:18;97901.69;;;13.03;86.76
15932;BME280;8065;49.520;11.284;2024-02-15T05:21:47;97899.78;;;13.04;87.10
15932;BME280;8065;49.520;11.284;2024-02-15T05:24:16;97901.69;;;13.03;87.05
15932;BME280;8065;49.520;11.284;2024-02-15T05:26:45;97903.06;;;13.09;86.94
15932;BME280;8065;49.520;11.284;2024-02-15T05:29:15;97894.91;;;13.06;86.80
15932;BME280;8065;49.520;11.284;2024-02-15T05:31:49;97902.28;;;13.09;86.89
15932;BME280;8065;49.520;11.284;2024-02-15T05:36:47;97905.84;;;13.13;86.81
15932;BME280;8065;49.520;11.284;2024-02-15T05:39:17;97905.38;;;13.20;86.80
15932;BME280;8065;49.520;11.284;2024-02-15T05:41:47;97903.63;;;13.24;86.81
15932;BME280;8065;49.520;11.284;2024-02-15T05:44:15;97910.06;;;13.23;87.15
15932;BME280;8065;49.520;11.284;2024-02-15T05:46:48;97904.88;;;13.26;86.92
15932;BME280;8065;49.520;11.284;2024-02-15T05:49:17;97904.88;;;13.26;86.99
15932;BME280;8065;49.520;11.284;2024-02-15T05:51:45;97905.00;;;13.30;87.02
15932;BME280;8065;49.520;11.284;2024-02-15T05:54:14;97905.78;;;13.30;86.95
15932;BME280;8065;49.520;11.284;2024-02-15T05:56:43;97907.59;;;13.38;86.70
15932;BME280;8065;49.520;11.284;2024-02-15T05:59:17;97908.38;;;13.39;86.61
15932;BME280;8065;49.520;11.284;2024-02-15T06:01:48;97907.16;;;13.36;86.62
15932;BME280;8065;49.520;11.284;2024-02-15T06:04:16;97912.16;;;13.38;86.56
15932;BME280;8065;49.520;11.284;2024-02-15T06:06:44;97911.84;;;13.39;86.62
15932;BME280;8065;49.520;11.284;2024-02-15T06:09:15;97911.84;;;13.39;86.62
15932;BME280;8065;49.520;11.284;2024-02-15T06:11:47;97919.97;;;13.43;86.28
15932;BME280;8065;49.520;11.284;2024-02-15T06:14:17;97919.19;;;13.42;86.44
15932;BME280;8065;49.520;11.284;2024-02-15T06:16:48;97917.78;;;13.45;86.38
15932;BME280;8065;49.520;11.284;2024-02-15T06:19:16;97915.44;;;13.43;86.11
15932;BME280;8065;49.520;11.284;2024-02-15T06:21:45;97924.13;;;13.32;86.12
15932;BME280;8065;49.520;11.284;2024-02-15T06:24:13;97923.53;;;13.26;86.40
15932;BME280;8065;49.520;11.284;2024-02-15T06:26:42;97924.31;;;13.27;86.45
15932;BME280;8065;49.520;11.284;2024-02-15T06:29:10;97925.78;;;13.16;86.64
15932;BME280;8065;49.520;11.284;2024-02-15T06:31:53;97925.63;;;13.12;86.90
15932;BME280;8065;49.520;11.284;2024-02-15T06:34:34;97938.53;;;13.10;87.00
15932;BME280;8065;49.520;11.284;2024-02-15T06:37:36;97935.66;;;13.15;86.95
15932;BME280;8065;49.520;11.284;2024-02-15T06:40:19;97929.56;;;13.14;86.68
15932;BME280;8065;49.520;11.284;2024-02-15T06:42:48;97929.72;;;13.18;87.00
15932;BME280;8065;49.520;11.284;2024-02-15T06:45:16;97927.50;;;13.20;86.96
15932;BME280;8065;49.520;11.284;2024-02-15T06:47:47;97933.94;;;13.19;86.84
15932;BME280;8065;49.520;11.284;2024-02-15T06:50:15;97933.75;;;13.24;86.94
15932;BME280;8065;49.520;11.284;2024-02-15T06:52:44;97933.44;;;13.26;86.75
15932;BME280;8065;49.520;11.284;2024-02-15T06:55:14;97937.16;;;13.33;86.74
15932;BME280;8065;49.520;11.284;2024-02-15T06:57:44;97936.19;;;13.38;86.42
15932;BME280;8065;49.520;11.284;2024-02-15T07:00:13;97940.09;;;13.40;86.26
15932;BME280;8065;49.520;11.284;2024-02-15T07:02:43;97941.13;;;13.27;86.21
15932;BME280;8065;49.520;11.284;2024-02-15T07:05:16;97937.16;;;13.33;86.61
15932;BME280;8065;49.520;11.284;2024-02-15T07:07:45;97939.38;;;13.31;86.46
15932;BME280;8065;49.520;11.284;2024-02-15T07:10:13;97932.47;;;13.30;86.65
15932;BME280;8065;49.520;11.284;2024-02-15T07:12:41;97929.81;;;13.30;86.85
15932;BME280;8065;49.520;11.284;2024-02-15T07:15:10;97933.91;;;13.28;86.78
15932;BME280;8065;49.520;11.284;2024-02-15T07:17:38;97927.31;;;13.25;87.12
15932;BME280;8065;49.520;11.284;2024-02-15T07:20:09;97930.91;;;13.29;87.05
15932;BME280;8065;49.520;11.284;2024-02-15T07:22:45;97930.25;;;13.32;87.16
15932;BME280;8065;49.520;11.284;2024-02-15T07:25:13;97936.84;;;13.35;87.23
15932;BME280;8065;49.520;11.284;2024-02-15T07:27:43;97921.59;;;13.35;87.30
15932;BME280;8065;49.520;11.284;2024-02-15T07:30:12;97928.06;;;13.34;87.14
15932;BME280;8065;49.520;11.284;2024-02-15T07:32:40;97930.72;;;13.34;87.55
15932;BME280;8065;49.520;11.284;2024-02-15T07:35:09;97940.41;;;13.39;87.64
15932;BME280;8065;49.520;11.284;2024-02-15T07:37:39;97932.94;;;13.32;87.63
15932;BME280;8065;49.520;11.284;2024-02-15T07:40:21;97930.78;;;13.26;88.45
15932;BME280;8065;49.520;11.284;2024-02-15T07:42:53;97932.34;;;13.27;88.56
15932;BME280;8065;49.520;11.284;2024-02-15T07:45:21;97935.13;;;13.30;88.44
15932;BME280;8065;49.520;11.284;2024-02-15T07:47:49;97936.50;;;13.36;88.51
15932;BME280;8065;49.520;11.284;2024-02-15T07:50:19;97936.13;;;13.47;88.44
15932;BME280;8065;49.520;11.284;2024-02-15T07:52:48;97934.84;;;13.53;88.16
15932;BME280;8065;49.520;11.284;2024-02-15T07:55:17;97938.09;;;13.58;88.31
15932;BME280;8065;49.520;11.284;2024-02-15T07:57:48;97938.69;;;13.64;88.01
15932;BME280;8065;49.520;11.284;2024-02-15T08:00:17;97938.69;;;13.64;87.99
15932;BME280;8065;49.520;11.284;2024-02-15T08:02:45;97935.34;;;13.67;87.96
15932;BME280;8065;49.520;11.284;2024-02-15T08:05:13;97932.50;;;13.72;88.00
15932;BME280;8065;49.520;11.284;2024-02-15T08:07:43;97937.19;;;13.75;87.77
15932;BME280;8065;49.520;11.284;2024-02-15T08:10:12;97930.72;;;13.76;87.98
15932;BME280;8065;49.520;11.284;2024-02-15T08:12:41;97935.09;;;13.81;87.87
15932;BME280;8065;49.520;11.284;2024-02-15T08:15:12;97934.44;;;13.84;88.26
15932;BME280;8065;49.520;11.284;2024-02-15T08:17:41;97923.75;;;13.84;88.26
15932;BME280;8065;49.520;11.284;2024-02-15T08:20:11;97926.88;;;13.86;88.35
15932;BME280;8065;49.520;11.284;2024-02-15T08:22:41;97919.19;;;13.84;88.62
15932;BME280;8065;49.520;11.284;2024-02-15T08:25:10;97925.09;;;13.90;88.74
15932;BME280;8065;49.520;11.284;2024-02-15T08:27:42;97922.75;;;13.88;88.73
15932;BME280;8065;49.520;11.284;2024-02-15T08:30:14;97917.63;;;13.83;88.70
15932;BME280;8065;49.520;11.284;2024-02-15T08:32:43;97914.63;;;13.85;89.03
15932;BME280;8065;49.520;11.284;2024-02-15T08:35:13;97907.72;;;13.84;88.94
15932;BME280;8065;49.520;11.284;2024-02-15T08:37:41;97915.50;;;13.89;88.72
15932;BME280;8065;49.520;11.284;2024-02-15T08:40:12;97904.94;;;13.92;88.88
15932;BME280;8065;49.520;11.284;2024-02-15T08:42:45;97910.94;;;13.89;88.89
15932;BME280;8065;49.520;11.284;2024-02-15T08:45:21;97908.41;;;13.93;88.95
15932;BME280;8065;49.520;11.284;2024-02-15T08:47:49;97909.88;;;14.02;88.72
15932;BME280;8065;49.520;11.284;2024-02-15T08:50:18;97910.78;;;14.06;88.79
15932;BME280;8065;49.520;11.284;2024-02-15T08:52:49;97902.25;;;14.13;88.69
15932;BME280;8065;49.520;11.284;2024-02-15T08:55:17;97912.72;;;14.18;88.45
15932;BME280;8065;49.520;11.284;2024-02-15T08:57:49;97910.94;;;14.22;88.57
15932;BME280;8065;49.520;11.284;2024-02-15T09:00:17;97906.19;;;14.28;88.59
15932;BME280;8065;49.520;11.284;2024-02-15T09:02:48;97904.84;;;14.34;88.56
15932;BME280;8065;49.520;11.284;2024-02-15T09:05:18;97902.63;;;14.36;88.29
15932;BME280;8065;49.520;11.284;2024-02-15T09:07:47;97899.75;;;14.41;88.16
15932;BME280;8065;49.520;11.284;2024-02-15T09:10:17;97906.34;;;14.43;88.32
15932;BME280;8065;49.520;11.284;2024-02-15T09:12:47;97895.09;;;14.50;88.07
15932;BME280;8065;49.520;11.284;2024-02-15T09:15:16;97896.66;;;14.51;88.18
15932;BME280;8065;49.520;11.284;2024-02-15T09:17:45;97900.69;;;14.57;87.95
15932;BME280;8065;49.520;11.284;2024-02-15T09:20:16;97900.03;;;14.60;88.30
15932;BME280;8065;49.520;11.284;2024-02-15T09:22:48;97897.13;;;14.65;88.14
15932;BME280;8065;49.520;11.284;2024-02-15T09:25:17;97899.13;;;14.68;87.84
15932;BME280;8065;49.520;11.284;2024-02-15T09:27:45;97895.78;;;14.71;87.64
15932;BME280;8065;49.520;11.284;2024-02-15T09:30:14;97898.47;;;14.71;87.71
15932;BME280;8065;49.520;11.284;2024-02-15T09:32:44;97892.19;;;14.80;87.89
15932;BME280;8065;49.520;11.284;2024-02-15T09:35:13;97894.22;;;14.83;87.64
15932;BME280;8065;49.520;11.284;2024-02-15T09:37:46;97887.84;;;14.87;87.45
15932;BME280;8065;49.520;11.284;2024-02-15T09:40:16;97887.53;;;14.89;87.09
15932;BME280;8065;49.520;11.284;2024-02-15T09:42:45;97889.19;;;14.93;87.70
15932;BME280;8065;49.520;11.284;2024-02-15T09:45:13;97889.28;;;14.97;87.11
15932;BME280;8065;49.520;11.284;2024-02-15T09:47:44;97899.34;;;15.00;87.03
15932;BME280;8065;49.520;11.284;2024-02-15T09:50:15;97895.09;;;14.99;87.18
15932;BME280;8065;49.520;11.284;2024-02-15T09:52:49;97898.78;;;15.06;86.92
15932;BME280;8065;49.520;11.284;2024-02-15T09:55:20;97895.53;;;15.01;86.86
15932;BME280;8065;49.520;11.284;2024-02-15T09:57:50;97897.78;;;14.99;84.89
15932;BME280;8065;49.520;11.284;2024-02-15T10:00:20;97899.78;;;15.02;85.72
15932;BME280;8065;49.520;11.284;2024-02-15T10:02:50;97905.78;;;15.11;85.26
15932;BME280;8065;49.520;11.284;2024-02-15T10:05:20;97899.34;;;15.00;85.02
15932;BME280;8065;49.520;11.284;2024-02-15T10:07:51;97895.31;;;15.06;83.93
15932;BME280;8065;49.520;11.284;2024-02-15T10:10:21;97901.00;;;15.17;84.15
15932;BME280;8065;49.520;11.284;2024-02-15T10:12:52;97889.72;;;15.11;84.70
15932;BME280;8065;49.520;11.284;2024-02-15T10:15:27;97886.03;;;15.16;84.62
15932;BME280;8065;49.520;11.284;2024-02-15T10:17:54;97885.06;;;15.08;85.29
15932;BME280;8065;49.520;11.284;2024-02-15T10:20:24;97886.38;;;15.26;84.27
15932;BME280;8065;49.520;11.284;2024-02-15T10:23:08;97881.34;;;15.25;84.62
15932;BME280;8065;49.520;11.284;2024-02-15T10:25:37;97872.94;;;15.38;84.36
15932;BME280;8065;49.520;11.284;2024-02-15T10:28:07;97877.63;;;15.41;83.99
15932;BME280;8065;49.520;11.284;2024-02-15T10:30:37;97869.00;;;15.48;84.09
15932;BME280;8065;49.520;11.284;2024-02-15T10:33:07;97877.38;;;15.59;83.57
15932;BME280;8065;49.520;11.284;2024-02-15T10:35:36;97872.28;;;15.41;82.58
15932;BME280;8065;49.520;11.284;2024-02-15T10:38:08;97873.28;;;15.37;82.24
15932;BME280;8065;49.520;11.284;2024-02-15T10:40:39;97868.44;;;15.55;81.39
15932;BME280;8065;49.520;11.284;2024-02-15T10:43:09;97858.13;;;15.69;81.74
15932;BME280;8065;49.520;11.284;2024-02-15T10:45:39;97862.31;;;15.82;81.32
15932;BME280;8065;49.520;11.284;2024-02-15T10:48:08;97853.47;;;15.82;81.14
15932;BME280;8065;49.520;11.284;2024-02-15T10:50:39;97851.44;;;15.91;81.53
15932;BME280;8065;49.520;11.284;2024-02-15T10:53:23;97843.06;;;15.92;81.35
15932;BME280;8065;49.520;11.284;2024-02-15T10:55:59;97842.47;;;15.99;80.17
15932;BME280;8065;49.520;11.284;2024-02-15T10:58:32;97837.09;;;15.99;79.19
15932;BME280;8065;49.520;11.284;2024-02-15T11:01:06;97835.22;;;16.15;78.94
15932;BME280;8065;49.520;11.284;2024-02-15T11:03:44;97819.97;;;15.88;78.74
15932;BME280;8065;49.520;11.284;2024-02-15T11:06:18;97817.50;;;15.67;79.03
15932;BME280;8065;49.520;11.284;2024-02-15T11:08:51;97814.38;;;16.40;78.00
15932;BME280;8065;49.520;11.284;2024-02-15T11:11:20;97802.22;;;16.78;78.56
15932;BME280;8065;49.520;11.284;2024-02-15T11:13:49;97810.47;;;17.23;77.44
15932;BME280;8065;49.520;11.284;2024-02-15T11:16:39;97813.72;;;17.71;76.06
15932;BME280;8065;49.520;11.284;2024-02-15T11:19:08;97809.22;;;17.98;75.01
15932;BME280;8065;49.520;11.284;2024-02-15T11:21:54;97807.72;;;18.00;74.37
15932;BME280;8065;49.520;11.284;2024-02-15T11:24:29;97796.38;;;18.11;73.39
15932;BME280;8065;49.520;11.284;2024-02-15T11:26:58;97803.72;;;17.91;73.91
15932;BME280;8065;49.520;11.284;2024-02-15T11:29:49;97794.22;;;18.20;73.90
15932;BME280;8065;49.520;11.284;2024-02-15T11:32:42;97798.03;;;18.19;73.97
15932;BME280;8065;49.520;11.284;2024-02-15T11:37:57;97791.03;;;18.14;73.16
15932;BME280;8065;49.520;11.284;2024-02-15T11:43:56;97785.72;;;18.18;72.25
15932;BME280;8065;49.520;11.284;2024-02-15T11:46:26;97782.31;;;18.47;72.12
15932;BME280;8065;49.520;11.284;2024-02-15T11:49:00;97780.38;;;18.71;71.94
15932;BME280;8065;49.520;11.284;2024-02-15T11:51:30;97779.22;;;18.45;68.77
15932;BME280;8065;49.520;11.284;2024-02-15T11:54:08;97778.63;;;18.06;68.70
15932;BME280;8065;49.520;11.284;2024-02-15T11:56:53;97778.56;;;18.29;68.64
15932;BME280;8065;49.520;11.284;2024-02-15T11:59:42;97772.78;;;18.76;68.82
15932;BME280;8065;49.520;11.284;2024-02-15T12:02:19;97775.81;;;18.75;68.33
15932;BME280;8065;49.520;11.284;2024-02-15T12:05:00;97770.25;;;18.60;67.42
15932;BME280;8065;49.520;11.284;2024-02-15T12:07:41;97772.00;;;18.76;66.60
15932;BME280;8065;49.520;11.284;2024-02-15T12:10:21;97767.00;;;19.04;66.26
15932;BME280;8065;49.520;11.284;2024-02-15T12:13:03;97765.34;;;18.96;65.71
15932;BME280;8065;49.520;11.284;2024-02-15T12:15:58;97761.41;;;18.90;66.48
15932;BME280;8065;49.520;11.284;2024-02-15T12:18:39;97761.69;;;19.15;65.87
15932;BME280;8065;49.520;11.284;2024-02-15T12:21:09;97751.59;;;19.05;65.34
15932;BME280;8065;49.520;11.284;2024-02-15T12:23:38;97744.34;;;19.12;65.95
15932;BME280;8065;49.520;11.284;2024-02-15T12:26:06;97752.06;;;19.14;66.02
15932;BME280;8065;49.520;11.284;2024-02-15T12:28:35;97744.72;;;19.11;66.16
15932;BME280;8065;49.520;11.284;2024-02-15T12:31:08;97752.38;;;19.05;66.42
15932;BME280;8065;49.520;11.284;2024-02-15T12:33:38;97752.16;;;18.87;66.37
15932;BME280;8065;49.520;11.284;2024-02-15T12:36:08;97742.88;;;18.32;65.56
15932;BME280;8065;49.520;11.284;2024-02-15T12:38:36;97733.97;;;18.54;65.79
15932;BME280;8065;49.520;11.284;2024-02-15T12:41:18;97731.94;;;18.71;66.69
15932;BME280;8065;49.520;11.284;2024-02-15T12:43:46;97729.81;;;18.87;66.13
15932;BME280;8065;49.520;11.284;2024-02-15T12:46:25;97724.50;;;18.90;66.51
15932;BME280;8065;49.520;11.284;2024-02-15T12:49:06;97724.53;;;18.94;66.68
15932;BME280;8065;49.520;11.284;2024-02-15T12:51:38;97715.44;;;19.09;66.15
15932;BME280;8065;49.520;11.284;2024-02-15T12:54:10;97705.44;;;19.06;65.72
15932;BME280;8065;49.520;11.284;2024-02-15T12:56:39;97708.59;;;19.15;66.20
15932;BME280;8065;49.520;11.284;2024-02-15T12:59:08;97708.34;;;19.27;66.13
15932;BME280;8065;49.520;11.284;2024-02-15T13:01:40;97707.13;;;19.21;65.63
15932;BME280;8065;49.520;11.284;2024-02-15T13:04:08;97701.66;;;19.14;62.98
15932;BME280;8065;49.520;11.284;2024-02-15T13:06:37;97706.97;;;19.07;62.41
15932;BME280;8065;49.520;11.284;2024-02-15T13:09:05;97700.34;;;19.35;63.58
15932;BME280;8065;49.520;11.284;2024-02-15T13:11:38;97706.47;;;19.31;62.19
15932;BME280;8065;49.520;11.284;2024-02-15T13:14:10;97698.91;;;19.44;62.12
15932;BME280;8065;49.520;11.284;2024-02-15T13:16:41;97698.13;;;19.44;61.59
15932;BME280;8065;49.520;11.284;2024-02-15T13:19:12;97690.22;;;19.24;60.16
15932;BME280;8065;49.520;11.284;2024-02-15T13:21:41;97689.06;;;19.59;61.05
15932;BME280;8065;49.520;11.284;2024-02-15T13:24:09;97683.94;;;19.94;61.07
15932;BME280;8065;49.520;11.284;2024-02-15T13:26:40;97687.09;;;20.04;60.77